CPX664 Details

Departure: Palm Beach International Airport (KPBI)
Arrival: Miami International Airport (KMIA) at N/A
Route: BUFIT2 HILEY HILEY7
Notes:


Current Weather Information
KPBI 171653Z 23005KT 10SM SCT035 SCT250 32/23 A3010 RMK AO2 SLP191 T03220228
KMIA 171653Z 14008KT 110V190 10SM SCT035 BKN050 BKN120 BKN250 33/23 A3009 RMK AO2 LTG DSNT NW SLP191 CB DSNT NW T03330228